Airfield :
LOGIN :

Register | Disclaimer

   EN    FR    IT 

 










Legend :    VFR   Marginal VFR   IFR   Intensive IFR   Very Intensive IFR
Visi :
Ceiling :
>= 8 km
>= 3000ft
5 to 8 km
1000 to 3000 ft
1500m to 5 km
500 to 1000 ft
800 to 1500m
200 to 500 ft
< 800m
< 200 ft
Symbols :   Thunderstorms  Fog  Heavy snow  Heavy precipitations  Wind > 20 kt
SIGMETs :     Misc.  Thunderstorms  Icing  Turbulence  Mountain Waves  Volcanic Ashes







- Airport Elevation : 659 ft
- IATA code : LGG


EBLG - Liège

CURRENT METAR :
  • 222350Z 24011KT 9999 SCT040 08/05 Q1017 NOSIG

EXPIRED METARs :
  • 222320Z 24011KT 9999 SCT040 08/05 Q1017 NOSIG
  • 222250Z 23011KT 9999 SCT030 BKN040 08/04 Q1017 NOSIG
  • 222220Z 22010KT 9999 -SHRA SCT030 BKN040 08/04 Q1017 NOSIG
  • 222150Z 23009KT 9999 FEW025 BKN040 08/04 Q1017 NOSIG
  • 222120Z 23011KT 9999 FEW025 BKN048 08/04 Q1017 NOSIG

TAF TAF EBLG
Valid from the 23 at 00:00 until the 24 at 06:00 UTC


222300Z 2300/2406 24009KT 9999 FEW020 BKN035
BECMG 2315/2317 4500 -RADZ SCT006 BKN009
TEMPO 2321/2402 2000 DZRA BKN004
PROB40
TEMPO 2402/2406 2000 BR BKN003
No reported NOTAMs for that airfield.



MET'MAP, your aeronautical weather chart ! - Copyright ORBIFLY December 2007 - Disclaimer

ORBIFLY MET'MAP TEAM :

Programming & Development : Alexandra Zaïnal
Concept & Development : Baudouin d'Aumeries
Co-Development & Prog : Marc-Olivier Méhu
Technical & hardware support : Manuel Goepfert

Contact : metmap@orbifly.com




SOURCES & CREDITS :

   NOAA